Strona główna
METAR-TAF:

METAR-TAF

Lotnisko :

Port lotniczy L. F. Wade

Bermudy, Bermudy

Szerokość geograficzna: 32-22N, Długość geograficzna: 064-41W, wysokość: 6 m

Aktualna obserwacja pogody

Raport powstał 56 minut temu, godzina 21:55 UTC
Wiatr 7 kt od południowo-południowy zachód
Temperatura 25°C
Wilgotność 65%
Ciśnienie 1024 hPa
Widzialność 10 km lub więcej
Mało chmury na wysokości 3000 ft
Przerywane chmury na wysokości 30000 ft

METAR: TXKF 212155Z 20007KT 9999 FEW030 BKN300 25/18 Q1024

czas: 19:51 (22:51 UTC)

Prognoza

Raport powstał 5 godziny i 18 minut temu, godzina 17:33 UTC
Prognoza ważna od 21 godzina 18 UTC do 22 godzina 18 UTC
Wiatr 7 kt od południowy zachód
Widzialność 10 km lub więcej
Mało chmury na wysokości 2000 ft
Przerywane chmury na wysokości 30000 ft

TAF: TXKF 211733Z 2118/2218 22007KT 9999 FEW020 BKN300

Obserwacja i prognoza pogody dla ponad 4000 lotnisk (raport METAR i TAF).

Dostępne stacje oznaczono żółtymi i czerwonymi punktami na mapie.

Najedź kursorem aby zobaczyć nazwę stacji.

Kliknij aby zobaczyć obserwacje i prognozy pogody.

Aby zmienić mapę: kliknij na zielony przycisk z czarnym krzyżykiem, aby powiększyć; na zielony przycisk z myślnikiem, aby pomniejszyć; na zielone strzałki, aby przejść do map sąsiednich.


METAR-TAF: